Time;durP1;ratioP1;P1;durP2;ratioP2;P2;SDS_P1;SDS_P2;PMS_P1;PMS_P2;Temp;Humidity;BMP_temperature;BMP_pressure;BME280_temperature;BME280_humidity;BME280_pressure;Samples;Min_cycle;Max_cycle;Signal;HPM_P1;HPM_P2
2023/06/23 00:00:28;;;;;;;12.70;10.20;;;;;;;23.47;80.67;100287.41;5106253;28;20114;-18
2023/06/23 00:02:54;;;;;;;12.40;10.40;;;;;;;23.31;81.08;100289.59;5106101;28;20529;-18
2023/06/23 00:05:20;;;;;;;12.07;9.82;;;;;;;22.99;82.47;100284.94;5106363;28;20059;-18
2023/06/23 00:07:45;;;;;;;12.75;10.25;;;;;;;22.90;82.55;100273.91;5105973;28;20533;-18
2023/06/23 00:10:11;;;;;;;11.80;9.65;;;;;;;22.95;83.16;100286.63;5106316;28;20122;-18
2023/06/23 00:12:41;;;;;;;13.98;9.73;;;;;;;22.82;83.51;100278.13;5105833;28;20027;-18
2023/06/23 00:15:16;;;;;;;14.07;9.70;;;;;;;22.97;82.02;100289.88;5106232;28;20055;-17
2023/06/23 00:17:46;;;;;;;12.85;9.95;;;;;;;23.11;83.42;100279.88;5106278;28;20072;-18
2023/06/23 00:20:13;;;;;;;13.57;9.98;;;;;;;23.16;80.45;100290.66;5107752;28;20044;-18
2023/06/23 00:22:40;;;;;;;11.82;9.88;;;;;;;23.19;79.77;100295.53;5109652;28;20024;-18
2023/06/23 00:25:09;;;;;;;13.38;10.38;;;;;;;22.99;81.62;100302.06;5109670;28;20032;-18
2023/06/23 00:27:39;;;;;;;13.43;10.18;;;;;;;22.80;84.09;100295.81;5109643;28;20055;-18
2023/06/23 00:30:06;;;;;;;11.98;9.63;;;;;;;23.03;81.62;100305.84;5109626;28;20062;-18
2023/06/23 00:32:32;;;;;;;14.13;10.20;;;;;;;23.04;81.09;100298.47;5091777;28;20076;-18
2023/06/23 00:34:58;;;;;;;14.82;11.73;;;;;;;23.00;82.40;100291.97;5109672;28;20467;-18
2023/06/23 00:37:23;;;;;;;14.27;10.80;;;;;;;22.73;85.40;100290.75;5109619;28;20056;-19
2023/06/23 00:39:49;;;;;;;11.57;10.07;;;;;;;22.65;85.94;100284.06;5109310;28;20058;-18
2023/06/23 00:42:14;;;;;;;12.73;10.52;;;;;;;22.52;86.32;100278.59;5109367;28;20040;-18
2023/06/23 00:44:39;;;;;;;11.98;10.07;;;;;;;22.49;85.83;100273.72;5109335;28;20023;-18
2023/06/23 00:47:06;;;;;;;12.82;10.30;;;;;;;22.52;84.91;100273.94;5109116;28;20016;-20
2023/06/23 00:49:34;;;;;;;11.65;9.98;;;;;;;22.72;84.24;100272.84;5109461;28;20023;-18
2023/06/23 00:52:02;;;;;;;14.00;10.20;;;;;;;22.65;82.37;100256.88;5109397;28;20034;-24
2023/06/23 00:54:28;;;;;;;12.32;10.13;;;;;;;;;;5109545;28;20059;-19
2023/06/23 00:56:58;;;;;;;13.85;10.25;;;;;;;22.53;82.41;100258.44;5108944;28;20047;-17
2023/06/23 00:59:30;;;;;;;13.52;9.85;;;;;;;22.45;82.11;100257.19;5109374;28;20103;-23
2023/06/23 01:02:01;;;;;;;15.30;10.27;;;;;;;22.45;82.47;100258.03;5109358;28;20024;-18
2023/06/23 01:04:28;;;;;;;14.75;10.23;;;;;;;22.44;82.75;100267.25;5109021;28;20056;-18
2023/06/23 01:07:01;;;;;;;15.48;10.13;;;;;;;22.34;82.42;100277.47;5108809;28;20020;-18
2023/06/23 01:09:59;;;;;;;12.88;10.25;;;;;;;22.27;83.33;100264.22;5109029;28;20078;-18
2023/06/23 01:12:30;;;;;;;12.68;10.07;;;;;;;22.31;87.02;100267.97;5077397;28;20044;-18
2023/06/23 01:15:11;;;;;;;12.43;10.43;;;;;;;22.40;82.71;100249.13;5109071;28;20035;-18
2023/06/23 01:17:42;;;;;;;16.98;10.32;;;;;;;22.38;86.56;100265.72;5108735;28;20028;-17
2023/06/23 01:20:24;;;;;;;12.80;10.18;;;;;;;21.98;87.95;100248.81;5108780;28;20035;-18
2023/06/23 01:23:08;;;;;;;13.60;10.27;;;;;;;21.89;87.93;100261.41;5108635;28;20035;-18
2023/06/23 01:25:33;;;;;;;13.35;11.32;;;;;;;21.91;86.31;100272.78;5108438;28;20066;-18
2023/06/23 01:28:17;;;;;;;13.20;11.02;;;;;;;21.95;87.25;100271.13;5108559;28;20055;-20
2023/06/23 01:30:46;;;;;;;16.25;12.25;;;;;;;21.96;87.55;100272.72;5108022;28;20049;-18
2023/06/23 01:33:23;;;;;;;13.75;11.20;;;;;;;21.78;87.75;100274.31;5108534;28;20023;-17
2023/06/23 01:36:00;;;;;;;14.32;11.65;;;;;;;21.74;88.68;100256.16;5108506;28;20020;-18
2023/06/23 01:38:31;;;;;;;13.55;11.63;;;;;;;21.72;91.69;100261.06;5108271;28;20039;-18
2023/06/23 01:41:00;;;;;;;13.48;10.80;;;;;;;21.78;91.48;100276.19;5108462;28;20028;-17
2023/06/23 01:43:31;;;;;;;14.60;12.23;;;;;;;21.74;89.53;100267.84;5108493;28;20047;-18
2023/06/23 01:46:03;;;;;;;13.77;10.90;;;;;;;21.56;90.04;100258.53;5106673;28;20036;-18
2023/06/23 01:48:31;;;;;;;15.02;11.15;;;;;;;21.85;91.19;100271.25;5087628;28;20464;-21
2023/06/23 01:50:58;;;;;;;20.33;13.80;;;;;;;21.74;90.85;100280.56;5087869;28;20039;-18
2023/06/23 01:53:25;;;;;;;19.00;12.98;;;;;;;21.71;92.99;100276.53;5087749;28;20040;-17
2023/06/23 01:55:52;;;;;;;20.30;13.50;;;;;;;21.55;91.99;100272.38;5087582;28;20028;-18
2023/06/23 01:58:18;;;;;;;20.17;14.50;;;;;;;21.72;92.88;100272.75;5087456;28;20412;-18
2023/06/23 02:00:45;;;;;;;19.08;13.40;;;;;;;21.80;91.97;100271.28;5087599;28;20079;-17
2023/06/23 02:03:11;;;;;;;15.75;13.10;;;;;;;21.74;90.35;100284.13;5087437;28;20483;-18
2023/06/23 02:05:37;;;;;;;15.40;11.68;;;;;;;21.77;90.16;100285.44;5087331;28;20027;-18
2023/06/23 02:08:05;;;;;;;12.85;10.90;;;;;;;21.89;91.00;100295.91;5087341;28;20077;-18
2023/06/23 02:10:31;;;;;;;14.02;10.82;;;;;;;21.77;88.96;100293.59;5087473;28;20052;-18
2023/06/23 02:12:58;;;;;;;15.98;10.75;;;;;;;21.72;90.95;100278.19;5087207;28;20100;-18
2023/06/23 02:15:25;;;;;;;11.90;10.07;;;;;;;21.69;90.14;100292.31;5087271;28;20032;-18
2023/06/23 02:17:52;;;;;;;16.20;10.60;;;;;;;21.71;89.25;100292.03;5086820;28;20020;-18
2023/06/23 02:20:18;;;;;;;12.87;10.67;;;;;;;21.65;89.28;100304.84;5087382;28;20028;-17
2023/06/23 02:22:49;;;;;;;18.20;10.32;;;;;;;21.75;87.62;100295.78;5086905;28;20064;-18
2023/06/23 02:25:16;;;;;;;19.95;11.07;;;;;;;21.54;88.75;100287.84;5087041;28;20028;-18
2023/06/23 02:27:42;;;;;;;;;;;;;;;21.53;89.82;100301.69;5087469;28;20020;-18
2023/06/23 02:30:10;;;;;;;18.02;11.68;;;;;;;21.53;90.39;100294.38;5087026;28;19964;-18
2023/06/23 02:32:35;;;;;;;18.42;11.85;;;;;;;21.75;87.68;100293.06;5087276;28;20020;-18
2023/06/23 02:35:02;;;;;;;15.30;11.70;;;;;;;21.56;89.21;100293.00;5087024;28;20040;-18
2023/06/23 02:37:30;;;;;;;17.70;11.83;;;;;;;21.43;89.80;100291.75;5086985;28;20119;-18
2023/06/23 02:40:14;;;;;;;17.02;11.35;;;;;;;21.49;91.39;100287.88;5086802;28;20028;-18
2023/06/23 02:42:44;;;;;;;17.48;12.13;;;;;;;21.51;92.48;100296.56;5085886;28;20042;-17
2023/06/23 02:45:16;;;;;;;17.60;12.73;;;;;;;21.20;93.12;100298.72;5086655;28;20573;-18
2023/06/23 02:47:43;;;;;;;18.98;12.18;;;;;;;21.51;90.14;100304.69;5087087;28;20097;-18
2023/06/23 02:50:14;;;;;;;18.25;12.68;;;;;;;21.34;91.41;100288.81;5086836;28;20016;-18
2023/06/23 02:52:45;;;;;;;16.75;12.02;;;;;;;21.36;90.05;100307.53;5086778;28;20085;-18
2023/06/23 02:55:12;;;;;;;16.92;12.10;;;;;;;21.33;90.84;100303.50;5086714;28;20457;-18
2023/06/23 02:57:39;;;;;;;17.50;11.77;;;;;;;21.38;89.03;100299.91;5086328;28;20742;-18
2023/06/23 03:00:12;;;;;;;20.90;12.95;;;;;;;21.52;88.03;100298.19;5086559;28;20024;-18
2023/06/23 03:02:42;;;;;;;19.40;13.57;;;;;;;21.20;89.37;100280.53;5086572;28;20423;-18
2023/06/23 03:05:08;;;;;;;14.77;11.88;;;;;;;21.22;92.29;100297.31;5084963;28;20020;-17
2023/06/23 03:07:38;;;;;;;20.17;13.50;;;;;;;21.22;92.05;100305.47;5086488;28;20564;-22
2023/06/23 03:10:07;;;;;;;15.48;12.38;;;;;;;21.37;90.31;100303.72;5086632;28;20039;-22
2023/06/23 03:12:33;;;;;;;19.88;12.45;;;;;;;21.00;89.43;100303.22;5086686;28;20028;-17
2023/06/23 03:14:59;;;;;;;15.75;11.30;;;;;;;20.76;93.70;100286.84;5086266;28;20093;-19
2023/06/23 03:17:28;;;;;;;18.00;12.38;;;;;;;20.57;94.34;100288.53;5086658;28;20111;-18
2023/06/23 03:20:05;;;;;;;17.83;11.75;;;;;;;20.57;95.37;100302.91;5093533;28;20036;-18
2023/06/23 03:22:46;;;;;;;17.95;11.90;;;;;;;20.36;97.04;100312.22;5097877;28;20028;-18
2023/06/23 03:25:20;;;;;;;15.27;11.15;;;;;;;20.32;98.39;100306.56;5089751;28;20066;-18
2023/06/23 03:27:48;;;;;;;18.90;11.75;;;;;;;20.12;99.61;100302.03;5095177;28;20020;-17
2023/06/23 03:30:21;;;;;;;18.17;12.85;;;;;;;20.36;99.13;100301.41;5097843;28;20507;-18
2023/06/23 03:32:51;;;;;;;18.88;11.85;;;;;;;20.46;100.00;100302.16;5086293;28;20103;-18
2023/06/23 03:35:25;;;;;;;18.52;11.30;;;;;;;20.53;99.73;100318.09;5085996;28;20031;-18
2023/06/23 03:37:56;;;;;;;17.55;12.40;;;;;;;20.38;98.10;100310.84;5086099;28;20029;-18
2023/06/23 03:40:23;;;;;;;20.92;12.02;;;;;;;20.46;100.00;100309.47;5086214;28;20027;-18
2023/06/23 03:43:02;;;;;;;19.00;12.70;;;;;;;20.81;98.62;100313.09;5085932;28;20566;-18
2023/06/23 03:45:29;;;;;;;17.95;12.45;;;;;;;20.77;97.85;100314.75;5085871;28;20058;-19
2023/06/23 03:48:01;;;;;;;16.33;12.30;;;;;;;20.91;97.90;100314.94;5086239;28;20052;-18
2023/06/23 03:50:32;;;;;;;19.75;12.48;;;;;;;21.16;96.24;100319.34;5086272;28;20032;-17
2023/06/23 03:53:01;;;;;;;15.38;12.15;;;;;;;20.93;95.10;100307.34;5086180;28;20111;-18
2023/06/23 03:55:31;;;;;;;16.65;12.38;;;;;;;21.09;95.88;100335.94;5089562;28;20474;-18
2023/06/23 03:57:59;;;;;;;20.25;13.52;;;;;;;21.25;94.66;100329.31;5089959;28;20106;-18
2023/06/23 04:00:26;;;;;;;21.50;13.70;;;;;;;21.22;97.21;100329.88;5089728;28;20143;-27
2023/06/23 04:02:54;;;;;;;15.98;13.00;;;;;;;21.37;98.21;100336.25;5089937;28;20032;-18
2023/06/23 04:05:20;;;;;;;;;;;;;;;21.00;98.97;100337.63;5090169;28;20078;-18
2023/06/23 04:07:48;;;;;;;18.55;13.90;;;;;;;21.16;99.07;100341.84;5089695;28;19955;-18
2023/06/23 04:10:17;;;;;;;21.33;14.50;;;;;;;21.31;96.58;100342.81;5071419;28;20106;-23
2023/06/23 04:12:45;;;;;;;19.88;14.02;;;;;;;21.52;94.89;100341.59;5089686;28;20020;-18
2023/06/23 04:15:12;;;;;;;;;;;;;;;21.24;96.38;100348.56;5090003;28;20064;-20
2023/06/23 04:17:40;;;;;;;22.10;14.93;;;;;;;21.54;94.26;100336.69;5089442;28;20666;-19
2023/06/23 04:20:09;;;;;;;21.05;15.13;;;;;;;21.86;93.39;100343.44;5089442;28;20473;-18
2023/06/23 04:22:38;;;;;;;22.45;15.05;;;;;;;21.95;92.25;100335.47;5089673;28;20542;-18
2023/06/23 04:25:05;;;;;;;18.15;15.30;;;;;;;22.27;89.23;100353.88;5089163;28;20107;-19
2023/06/23 04:27:34;;;;;;;22.57;15.27;;;;;;;22.26;89.38;100341.41;5096923;28;20028;-18
2023/06/23 04:30:01;;;;;;;21.33;15.20;;;;;;;22.42;88.63;100334.69;5094715;28;20095;-18
2023/06/23 04:32:27;;;;;;;20.30;14.90;;;;;;;22.38;88.66;100322.78;5089144;28;20081;-18
2023/06/23 04:34:53;;;;;;;19.35;14.80;;;;;;;22.38;90.92;100324.69;5089087;28;20036;-18
2023/06/23 04:37:26;;;;;;;18.17;14.20;;;;;;;22.42;89.18;100329.25;5089198;28;20031;-20
2023/06/23 04:40:08;;;;;;;19.63;13.48;;;;;;;22.50;87.05;100329.69;5089138;28;20103;-17
2023/06/23 04:42:42;;;;;;;18.55;13.05;;;;;;;22.49;86.68;100330.78;5088804;28;20096;-18
2023/06/23 04:45:11;;;;;;;19.63;14.35;;;;;;;22.78;87.63;100336.91;5088859;28;20063;-18
2023/06/23 04:47:40;;;;;;;19.30;13.65;;;;;;;22.70;88.10;100328.59;5088889;28;20168;-17
2023/06/23 04:50:11;;;;;;;20.83;14.80;;;;;;;22.77;87.56;100345.38;5088888;28;20024;-18
2023/06/23 04:52:43;;;;;;;17.27;14.07;;;;;;;22.54;86.29;100336.16;5088742;28;20085;-18
2023/06/23 04:55:11;;;;;;;20.45;16.48;;;;;;;22.92;85.55;100352.47;5088780;28;20461;-18
2023/06/23 04:57:39;;;;;;;25.17;22.48;;;;;;;22.79;87.49;100349.41;5088806;28;20083;-18
2023/06/23 05:00:08;;;;;;;18.15;14.27;;;;;;;22.72;86.40;100340.81;5088871;28;20128;-18
2023/06/23 05:02:35;;;;;;;21.80;14.68;;;;;;;23.17;85.81;100348.59;5088750;28;20499;-18
2023/06/23 05:05:02;;;;;;;21.70;15.17;;;;;;;23.37;85.31;100347.47;5087709;28;20085;-18
2023/06/23 05:07:29;;;;;;;18.83;14.48;;;;;;;23.41;84.79;100343.84;5088463;28;20270;-17
2023/06/23 05:09:56;;;;;;;16.90;13.20;;;;;;;23.74;82.60;100353.91;5088734;28;20024;-18
2023/06/23 05:12:24;;;;;;;18.13;13.63;;;;;;;23.74;80.91;100356.63;5088312;28;20028;-18
2023/06/23 05:14:52;;;;;;;18.35;13.20;;;;;;;23.73;81.58;100344.13;5088370;28;20027;-19
2023/06/23 05:17:20;;;;;;;18.70;13.10;;;;;;;23.71;81.74;100340.91;5088481;28;20035;-18
2023/06/23 05:19:48;;;;;;;16.42;13.80;;;;;;;24.06;79.39;100364.75;5088291;28;20082;-18
2023/06/23 05:22:16;;;;;;;18.05;13.73;;;;;;;23.74;81.38;100348.44;5088263;28;20127;-18
2023/06/23 05:24:49;;;;;;;17.88;13.60;;;;;;;23.85;80.96;100352.66;5088160;28;20031;-18
2023/06/23 05:27:17;;;;;;;15.70;12.77;;;;;;;23.78;80.28;100349.50;5088121;28;20020;-18
2023/06/23 05:29:46;;;;;;;17.20;13.15;;;;;;;24.12;79.31;100356.50;5070016;28;20031;-18
2023/06/23 05:32:14;;;;;;;16.45;12.77;;;;;;;24.35;77.59;100366.38;5088158;28;20027;-18
2023/06/23 05:34:45;;;;;;;14.93;12.27;;;;;;;24.47;75.57;100358.47;5087647;28;20024;-23
2023/06/23 05:37:12;;;;;;;17.17;12.48;;;;;;;24.71;74.71;100354.75;5088287;28;20040;-18
2023/06/23 05:39:39;;;;;;;16.35;11.35;;;;;;;25.03;72.57;100356.47;5088100;28;20110;-17
2023/06/23 05:42:05;;;;;;;;;;;;;;;25.09;70.63;100362.63;5088236;28;20131;-18
2023/06/23 05:44:31;;;;;;;16.48;11.48;;;;;;;24.98;73.17;100369.41;5087797;28;19998;-17
2023/06/23 05:46:59;;;;;;;12.25;10.40;;;;;;;25.30;69.62;100367.63;5087709;28;20357;-17
2023/06/23 05:49:27;;;;;;;13.75;10.10;;;;;;;25.34;70.65;100369.41;5087696;28;20093;-18
2023/06/23 05:51:57;;;;;;;13.15;9.95;;;;;;;25.04;71.29;100371.72;5087676;28;20495;-19
2023/06/23 05:54:25;;;;;;;11.82;9.13;;;;;;;25.13;68.17;100352.72;5087650;28;20415;-19
2023/06/23 05:56:54;;;;;;;13.25;10.23;;;;;;;25.46;67.14;100366.13;5087749;28;20155;-18
2023/06/23 05:59:32;;;;;;;13.32;9.68;;;;;;;25.78;62.88;100377.88;5087586;28;20032;-19
2023/06/23 06:01:59;;;;;;;12.32;10.20;;;;;;;25.79;62.96;100363.09;5087547;28;20020;-18
2023/06/23 06:04:29;;;;;;;13.43;10.30;;;;;;;25.38;64.25;100361.41;5087366;28;20020;-18
2023/06/23 06:06:57;;;;;;;14.90;10.48;;;;;;;25.59;63.63;100365.22;5087655;28;20024;-19
2023/06/23 06:09:26;;;;;;;13.85;10.70;;;;;;;25.79;63.18;100363.09;5087389;28;20036;-18
2023/06/23 06:11:53;;;;;;;14.73;10.15;;;;;;;25.65;65.33;100361.25;5087225;28;20132;-17
2023/06/23 06:14:21;;;;;;;16.48;11.10;;;;;;;25.84;65.17;100349.28;5087268;28;20024;-18
2023/06/23 06:16:47;;;;;;;16.10;10.57;;;;;;;26.04;64.62;100369.81;5087135;28;20032;-18
2023/06/23 06:19:16;;;;;;;15.95;11.05;;;;;;;26.19;64.74;100361.19;5069021;28;20047;-18
2023/06/23 06:21:44;;;;;;;16.42;11.57;;;;;;;26.34;65.15;100368.16;5086790;28;20034;-18
2023/06/23 06:24:13;;;;;;;14.38;10.32;;;;;;;26.44;62.54;100365.13;5087252;28;20031;-21
2023/06/23 06:26:41;;;;;;;17.58;11.20;;;;;;;26.57;60.69;100349.72;5087167;28;20106;-19
2023/06/23 06:29:08;;;;;;;;;;;;;;;26.56;60.54;100358.22;5087565;28;20032;-18
2023/06/23 06:31:36;;;;;;;16.30;11.55;;;;;;;26.54;62.07;100363.22;5068804;28;19930;-18
2023/06/23 06:34:03;;;;;;;19.77;11.63;;;;;;;26.81;59.80;100352.03;5086953;28;20036;-19
2023/06/23 06:36:31;;;;;;;15.10;11.40;;;;;;;26.80;60.01;100344.91;5086897;28;20036;-18
2023/06/23 06:38:58;;;;;;;14.82;11.55;;;;;;;27.00;57.62;100359.09;5086951;28;20031;-18
2023/06/23 06:41:24;;;;;;;15.60;11.07;;;;;;;27.08;59.47;100352.81;5086529;28;20016;-21
2023/06/23 06:43:50;;;;;;;19.83;10.77;;;;;;;27.32;59.98;100351.53;5086831;28;20024;-18
2023/06/23 06:46:17;;;;;;;14.65;9.98;;;;;;;26.84;59.60;100348.63;5086453;28;20054;-18
2023/06/23 06:48:50;;;;;;;14.95;10.52;;;;;;;27.27;57.61;100349.75;5086623;28;20051;-18
2023/06/23 06:51:19;;;;;;;14.52;10.02;;;;;;;27.34;58.60;100347.34;5086674;28;20465;-18
2023/06/23 06:53:46;;;;;;;11.50;10.05;;;;;;;27.10;60.23;100339.63;5086571;28;20046;-19
2023/06/23 06:56:13;;;;;;;11.25;10.10;;;;;;;27.25;58.51;100341.88;5086475;28;20052;-18
2023/06/23 06:58:39;;;;;;;15.18;9.90;;;;;;;27.56;57.31;100335.34;5094562;28;20055;-18
2023/06/23 07:01:06;;;;;;;11.52;10.25;;;;;;;27.75;56.12;100332.25;5106780;28;20047;-19
2023/06/23 07:03:33;;;;;;;14.23;10.40;;;;;;;28.04;55.51;100345.22;5106231;28;20023;-17
2023/06/23 07:05:59;;;;;;;13.52;10.40;;;;;;;28.02;53.83;100333.78;5106584;28;20678;-18
2023/06/23 07:08:24;;;;;;;16.88;11.07;;;;;;;28.05;57.36;100330.38;5106635;28;20027;-23
2023/06/23 07:10:50;;;;;;;14.85;10.38;;;;;;;28.18;55.68;100330.47;5106443;28;20110;-18
2023/06/23 07:13:15;;;;;;;12.45;10.05;;;;;;;27.98;55.44;100341.03;5106740;28;20468;-17
2023/06/23 07:15:41;;;;;;;12.50;10.50;;;;;;;27.68;56.44;100337.41;5106453;28;20049;-20
2023/06/23 07:18:06;;;;;;;14.25;10.70;;;;;;;27.71;59.13;100334.03;5106881;28;20474;-18
2023/06/23 07:20:31;;;;;;;17.05;12.93;;;;;;;28.21;55.88;100338.81;5106813;28;20028;-19
2023/06/23 07:22:57;;;;;;;14.07;11.07;;;;;;;28.14;55.31;100340.50;5106663;28;20024;-17
2023/06/23 07:25:22;;;;;;;13.27;10.60;;;;;;;28.56;54.92;100340.59;5106773;28;20071;-18
2023/06/23 07:27:48;;;;;;;14.13;11.02;;;;;;;28.13;54.08;100338.88;5106672;28;20023;-18
2023/06/23 07:30:14;;;;;;;13.38;10.57;;;;;;;28.37;53.71;100343.75;5110193;28;20502;-19
2023/06/23 07:32:40;;;;;;;14.07;11.73;;;;;;;28.20;54.76;100336.44;5110664;28;20039;-17
2023/06/23 07:35:06;;;;;;;13.85;10.88;;;;;;;28.30;56.40;100336.06;5110661;28;20023;-18
2023/06/23 07:37:32;;;;;;;14.63;11.13;;;;;;;28.55;54.57;100341.72;5110692;28;20123;-19
2023/06/23 07:39:57;;;;;;;14.40;11.00;;;;;;;28.67;55.22;100338.25;5110740;28;20384;-19
2023/06/23 07:42:24;;;;;;;12.40;10.25;;;;;;;28.81;55.59;100341.50;5110157;28;20044;-17
2023/06/23 07:44:49;;;;;;;14.40;11.65;;;;;;;29.09;53.09;100338.22;5110352;28;20483;-18
2023/06/23 07:47:15;;;;;;;13.52;11.15;;;;;;;28.82;56.43;100324.72;5110494;28;20076;-18
2023/06/23 07:49:40;;;;;;;14.10;11.77;;;;;;;29.06;52.52;100328.72;5110510;28;20019;-18
2023/06/23 07:52:06;;;;;;;14.65;11.45;;;;;;;29.33;51.77;100327.34;5110337;28;20086;-17
2023/06/23 07:54:32;;;;;;;12.02;10.73;;;;;;;29.62;53.04;100320.88;5110257;28;20035;-17
2023/06/23 07:56:58;;;;;;;13.20;10.52;;;;;;;29.58;52.73;100317.22;5110274;28;20027;-18
2023/06/23 07:59:25;;;;;;;13.75;10.35;;;;;;;29.56;51.20;100314.00;5110026;28;20047;-18
2023/06/23 08:01:51;;;;;;;12.25;10.55;;;;;;;29.76;50.81;100311.53;5109648;28;20039;-18
2023/06/23 08:04:17;;;;;;;11.90;10.65;;;;;;;29.64;51.63;100315.84;5109832;28;20038;-18
2023/06/23 08:06:43;;;;;;;12.98;10.20;;;;;;;29.87;51.21;100301.69;5110260;28;20023;-22
2023/06/23 08:09:09;;;;;;;13.40;10.57;;;;;;;30.11;50.30;100305.59;5110357;28;20223;-18
2023/06/23 08:11:34;;;;;;;13.93;10.57;;;;;;;29.92;52.92;100303.41;5109790;28;20023;-19
2023/06/23 08:14:02;;;;;;;11.25;9.80;;;;;;;29.92;51.84;100304.22;5109163;28;20098;-19
2023/06/23 08:16:27;;;;;;;11.80;10.27;;;;;;;30.04;49.46;100308.91;5109833;28;20067;-18
2023/06/23 08:18:53;;;;;;;12.73;10.13;;;;;;;29.99;51.16;100307.19;5109689;28;20032;-17
2023/06/23 08:21:19;;;;;;;13.38;9.88;;;;;;;30.59;48.87;100309.44;5109608;28;20421;-18
2023/06/23 08:23:45;;;;;;;13.40;10.07;;;;;;;30.41;49.54;100297.91;5109805;28;20016;-18
2023/06/23 08:26:11;;;;;;;12.48;10.48;;;;;;;30.36;50.32;100306.38;5109693;28;20028;-18
2023/06/23 08:28:36;;;;;;;12.18;10.00;;;;;;;30.57;50.05;100301.53;5109680;28;20028;-19
2023/06/23 08:31:02;;;;;;;12.63;11.32;;;;;;;30.59;49.13;100309.44;5109379;28;20031;-18
2023/06/23 08:33:27;;;;;;;13.85;9.98;;;;;;;30.63;48.47;100307.59;5109537;28;20035;-18
2023/06/23 08:35:53;;;;;;;12.20;10.45;;;;;;;30.87;48.13;100305.88;5109653;28;20027;-19
2023/06/23 08:38:18;;;;;;;13.75;10.63;;;;;;;30.84;48.44;100299.13;5109497;28;20240;-18
2023/06/23 08:40:45;;;;;;;12.07;10.80;;;;;;;30.59;47.25;100298.44;5108169;28;20034;-19
2023/06/23 08:43:11;;;;;;;12.48;10.85;;;;;;;30.89;48.53;100284.34;5109403;28;20035;-19
2023/06/23 08:45:44;;;;;;;12.95;11.32;;;;;;;31.09;48.28;100288.81;5109328;28;20629;-18
2023/06/23 08:48:10;;;;;;;13.25;11.23;;;;;;;31.33;48.78;100287.09;5109570;28;20198;-18
2023/06/23 08:50:37;;;;;;;13.38;11.40;;;;;;;31.33;48.64;100292.59;5109461;28;20102;-18
2023/06/23 08:53:05;;;;;;;12.60;10.65;;;;;;;31.38;47.85;100284.06;5109141;28;20019;-19
2023/06/23 08:55:34;;;;;;;16.33;11.65;;;;;;;31.69;47.44;100283.31;5109066;28;20388;-18
2023/06/23 08:58:03;;;;;;;11.68;10.07;;;;;;;31.76;45.77;100279.91;5108948;28;20035;-18
2023/06/23 09:00:28;;;;;;;11.63;10.00;;;;;;;31.93;46.75;100282.28;5109074;28;20031;-18
2023/06/23 09:02:55;;;;;;;14.85;10.55;;;;;;;31.98;47.41;100273.75;5108837;28;20039;-18
2023/06/23 09:05:21;;;;;;;11.68;10.02;;;;;;;31.92;45.26;100275.19;5109036;28;20069;-18
2023/06/23 09:07:47;;;;;;;10.88;9.73;;;;;;;31.98;44.12;100272.97;5108804;28;20032;-18
2023/06/23 09:10:13;;;;;;;12.15;9.90;;;;;;;31.91;44.37;100270.03;5108678;28;20020;-19
2023/06/23 09:12:56;;;;;;;11.20;10.10;;;;;;;32.14;45.07;100259.97;5109191;28;20030;-18
2023/06/23 09:15:22;;;;;;;9.98;8.95;;;;;;;32.16;43.85;100273.38;5108635;28;20020;-18
2023/06/23 09:17:48;;;;;;;10.52;9.43;;;;;;;32.67;41.90;100269.75;5108780;28;20031;-18
2023/06/23 09:20:15;;;;;;;12.80;9.55;;;;;;;32.78;41.39;100268.78;5108805;28;20190;-19
2023/06/23 09:22:41;;;;;;;10.27;9.18;;;;;;;32.65;43.33;100261.81;5109007;28;20479;-18
2023/06/23 09:25:07;;;;;;;10.70;9.60;;;;;;;32.82;40.71;100277.94;5108227;28;20028;-18
2023/06/23 09:27:40;;;;;;;10.93;9.18;;;;;;;32.53;41.94;100268.28;5108825;28;20030;-18
2023/06/23 09:30:06;;;;;;;11.27;9.38;;;;;;;32.91;41.63;100271.41;5108527;28;20028;-18
2023/06/23 09:32:33;;;;;;;10.85;9.75;;;;;;;33.06;41.50;100262.22;5108282;28;20034;-18
2023/06/23 09:34:58;;;;;;;10.45;8.85;;;;;;;32.60;40.60;100267.63;5108425;28;20046;-18
2023/06/23 09:37:25;;;;;;;10.07;8.60;;;;;;;33.05;42.38;100260.59;5108283;28;20103;-19
2023/06/23 09:39:55;;;;;;;10.07;8.60;;;;;;;33.02;39.28;100269.66;5108428;28;20106;-20
2023/06/23 09:42:22;;;;;;;11.30;8.98;;;;;;;32.91;40.19;100241.00;5108282;28;20104;-18
2023/06/23 09:44:48;;;;;;;11.52;8.90;;;;;;;32.97;40.51;100267.16;5108317;28;20027;-20
2023/06/23 09:47:16;;;;;;;11.05;9.35;;;;;;;32.99;40.28;100251.03;5108423;28;20043;-19
2023/06/23 09:49:47;;;;;;;10.43;8.98;;;;;;;33.07;41.59;100255.50;5108260;28;20570;-17
2023/06/23 09:52:23;;;;;;;10.15;8.45;;;;;;;33.44;39.78;100257.75;5107726;28;20026;-18
2023/06/23 09:54:48;;;;;;;10.88;9.25;;;;;;;33.34;39.99;100248.13;5108294;28;20107;-18
2023/06/23 09:57:16;;;;;;;9.98;8.65;;;;;;;33.50;38.11;100245.22;5107812;28;20284;-19
2023/06/23 09:59:42;;;;;;;;;;;;;;;33.35;39.98;100244.19;5108383;28;20547;-18
2023/06/23 10:02:18;;;;;;;38.47;11.10;;;;;;;33.46;40.04;100227.78;5107611;28;20681;-18
2023/06/23 10:04:44;;;;;;;11.23;8.73;;;;;;;33.84;39.17;100234.31;5107721;28;20023;-24
2023/06/23 10:07:22;;;;;;;10.60;9.00;;;;;;;33.43;37.96;100218.28;5107880;28;20019;-18
2023/06/23 10:09:55;;;;;;;13.38;9.05;;;;;;;33.43;38.29;100231.31;5107812;28;20261;-18
2023/06/23 10:12:23;;;;;;;11.10;9.82;;;;;;;33.96;37.00;100224.97;5107605;28;21215;-18
2023/06/23 10:14:50;;;;;;;9.82;8.82;;;;;;;33.97;37.11;100227.38;5106713;28;20055;-19
2023/06/23 10:17:16;;;;;;;10.50;9.02;;;;;;;34.18;37.93;100223.34;5107034;28;20479;-19
2023/06/23 10:19:44;;;;;;;10.52;8.57;;;;;;;34.24;38.05;100213.53;5106753;28;20035;-18
2023/06/23 10:22:12;;;;;;;14.93;9.57;;;;;;;33.88;37.57;100218.56;5106021;28;20050;-19
2023/06/23 10:24:38;;;;;;;10.27;8.52;;;;;;;34.17;38.77;100216.22;5106169;28;20023;-18
2023/06/23 10:27:05;;;;;;;10.90;8.70;;;;;;;33.98;37.58;100209.63;5106765;28;20418;-19
2023/06/23 10:29:36;;;;;;;10.38;8.95;;;;;;;34.53;35.87;100219.41;5106788;28;20038;-19
2023/06/23 10:32:04;;;;;;;9.80;8.07;;;;;;;34.94;34.67;100211.97;5106701;28;20410;-25
2023/06/23 10:34:30;;;;;;;10.35;7.90;;;;;;;34.96;33.52;100211.56;5107075;28;20016;-18
2023/06/23 10:36:57;;;;;;;8.57;7.60;;;;;;;34.44;33.38;100203.09;5107323;28;20035;-18
2023/06/23 10:39:26;;;;;;;9.07;7.80;;;;;;;34.59;34.01;100204.03;5107000;28;20023;-18
2023/06/23 10:41:53;;;;;;;10.52;7.75;;;;;;;34.96;34.68;100192.19;5107302;28;20047;-19
2023/06/23 10:44:18;;;;;;;;;;;;;;;35.21;31.45;100207.09;5107473;28;20157;-18
2023/06/23 10:46:44;;;;;;;8.43;7.33;;;;;;;35.00;32.21;100196.59;5106896;28;20012;-21
2023/06/23 10:49:11;;;;;;;8.65;7.57;;;;;;;35.25;33.22;100203.53;5107028;28;20081;-19
2023/06/23 10:51:38;;;;;;;11.32;8.63;;;;;;;35.01;32.48;100194.59;5107258;28;20019;-18
2023/06/23 10:54:05;;;;;;;11.23;8.77;;;;;;;35.26;33.39;100192.06;5107027;28;20028;-18
2023/06/23 10:56:38;;;;;;;10.45;8.35;;;;;;;34.88;32.75;100187.75;5106977;28;20030;-18
2023/06/23 10:59:28;;;;;;;9.82;8.23;;;;;;;35.21;34.32;100193.22;5088357;28;20048;-18
2023/06/23 11:01:59;;;;;;;10.82;8.35;;;;;;;34.96;33.29;100183.88;5086695;28;20032;-19
2023/06/23 11:04:29;;;;;;;10.48;8.57;;;;;;;34.89;33.43;100184.59;5085898;28;20020;-18
2023/06/23 11:07:02;;;;;;;9.05;8.13;;;;;;;35.31;33.34;100182.59;5086559;28;20024;-18
2023/06/23 11:10:05;;;;;;;13.40;8.57;;;;;;;35.70;33.94;100179.34;5086483;28;20025;-18
2023/06/23 11:12:36;;;;;;;9.82;7.70;;;;;;;35.98;32.94;100185.03;5086449;28;20055;-18
2023/06/23 11:15:20;;;;;;;10.43;8.35;;;;;;;35.89;32.41;100179.03;5086164;28;20093;-18
2023/06/23 11:17:49;;;;;;;9.68;8.02;;;;;;;35.47;33.04;100172.03;5086201;28;20024;-19
2023/06/23 11:20:24;;;;;;;9.20;8.00;;;;;;;35.53;33.11;100166.91;5086486;28;20024;-17